Time;durP1;ratioP1;P1;durP2;ratioP2;P2;SDS_P1;SDS_P2;PMS_P1;PMS_P2;Temp;Humidity;BMP_temperature;BMP_pressure;BME280_temperature;BME280_humidity;BME280_pressure;Samples;Min_cycle;Max_cycle;Signal;HPM_P1;HPM_P2
2023/07/01 00:01:35;;;;;;;;;;;17.70;99.90;;;;;;5078362;28;20001;-67
2023/07/01 00:04:02;;;;;;;;;;;17.70;99.90;;;;;;5078877;28;20091;-67
2023/07/01 00:06:28;;;;;;;;;;;17.70;99.90;;;;;;5078655;28;20001;-67
2023/07/01 00:08:55;;;;;;;;;;;17.80;99.90;;;;;;5078485;28;20084;-67
2023/07/01 00:11:22;;;;;;;;;;;17.90;99.90;;;;;;5078770;28;20092;-67
2023/07/01 00:13:50;;;;;;;;;;;17.90;99.90;;;;;;5078238;28;20001;-67
2023/07/01 00:16:18;;;;;;;;;;;17.90;99.90;;;;;;5078537;28;20344;-67
2023/07/01 00:18:45;;;;;;;;;;;17.90;99.90;;;;;;5078056;28;20001;-67
2023/07/01 00:21:12;;;;;;;;;;;17.90;99.90;;;;;;5077934;28;20440;-67
2023/07/01 00:23:39;;;;;;;;;;;17.90;99.90;;;;;;5078006;28;20001;-67
2023/07/01 00:26:05;;;;;;;;;;;17.80;99.90;;;;;;5077840;28;20012;-67
2023/07/01 00:28:32;;;;;;;;;;;17.80;99.90;;;;;;5077947;28;20091;-67
2023/07/01 00:31:00;;;;;;;;;;;17.90;99.90;;;;;;5078221;28;20125;-67
2023/07/01 00:33:27;;;;;;;;;;;17.80;99.90;;;;;;5078061;28;20001;-67
2023/07/01 00:35:53;;;;;;;;;;;17.80;99.90;;;;;;5078044;28;20456;-67
2023/07/01 00:38:20;;;;;;;;;;;17.80;99.90;;;;;;5077709;28;20031;-67
2023/07/01 00:40:47;;;;;;;;;;;17.80;99.90;;;;;;5077899;28;20405;-67
2023/07/01 00:43:13;;;;;;;;;;;17.80;99.90;;;;;;5077950;28;20511;-67
2023/07/01 00:45:40;;;;;;;;;;;17.90;99.90;;;;;;5077910;28;20001;-67
2023/07/01 00:48:08;;;;;;;;;;;17.90;99.90;;;;;;5078155;28;20001;-68
2023/07/01 00:50:35;;;;;;;;;;;17.80;99.90;;;;;;5077546;28;20017;-68
2023/07/01 00:53:01;;;;;;;;;;;17.80;99.90;;;;;;5077968;28;20001;-68
2023/07/01 00:55:28;;;;;;;;;;;17.90;99.90;;;;;;5077230;28;20001;-67
2023/07/01 00:57:55;;;;;;;;;;;17.90;99.90;;;;;;5077378;28;20001;-67
2023/07/01 01:00:22;;;;;;;;;;;17.90;99.90;;;;;;5077260;28;20008;-67
2023/07/01 01:02:54;;;;;;;;;;;17.90;99.90;;;;;;5077560;28;20012;-67
2023/07/01 01:05:25;;;;;;;;;;;17.90;99.90;;;;;;5076334;28;19997;-67
2023/07/01 01:07:57;;;;;;;;;;;17.90;99.90;;;;;;5077442;28;19998;-67
2023/07/01 01:10:24;;;;;;;;;;;17.80;99.90;;;;;;5077127;28;20079;-68
2023/07/01 01:12:52;;;;;;;;;;;17.70;99.90;;;;;;5077580;28;20011;-68
2023/07/01 01:15:18;;;;;;;;;;;17.80;99.90;;;;;;5077408;28;20001;-68
2023/07/01 01:17:45;;;;;;;;;;;17.80;99.90;;;;;;5077664;28;20001;-67
2023/07/01 01:20:13;;;;;;;;;;;17.80;99.90;;;;;;5077114;28;20091;-67
2023/07/01 01:22:46;;;;;;;;;;;17.70;99.90;;;;;;5077303;28;20013;-67
2023/07/01 01:25:17;;;;;;;;;;;17.70;99.90;;;;;;5076898;28;20000;-67
2023/07/01 01:27:45;;;;;;;;;;;17.60;99.90;;;;;;5076845;28;20005;-67
2023/07/01 01:30:14;;;;;;;;;;;17.60;99.90;;;;;;5077169;28;20068;-68
2023/07/01 01:32:40;;;;;;;;;;;17.60;99.90;;;;;;5077040;28;20005;-67
2023/07/01 01:35:07;;;;;;;;;;;17.60;99.90;;;;;;5076768;28;20001;-68
2023/07/01 01:37:37;;;;;;;;;;;17.60;99.90;;;;;;5076404;28;20068;-66
2023/07/01 01:40:15;;;;;;;;;;;17.50;99.90;;;;;;5076799;28;20005;-67
2023/07/01 01:42:44;;;;;;;;;;;17.50;99.90;;;;;;5076555;28;19997;-67
2023/07/01 01:45:13;;;;;;;;;;;17.50;99.90;;;;;;5076801;28;20059;-67
2023/07/01 01:47:39;;;;;;;;;;;17.50;99.90;;;;;;5076208;28;20001;-67
2023/07/01 01:50:08;;;;;;;;;;;17.50;99.90;;;;;;5076432;28;20017;-68
2023/07/01 01:52:35;;;;;;;;;;;17.50;99.90;;;;;;5076350;28;20067;-68
2023/07/01 01:55:02;;;;;;;;;;;17.50;99.90;;;;;;5076447;28;20357;-68
2023/07/01 01:57:29;;;;;;;;;;;17.50;99.90;;;;;;5076206;28;20001;-67
2023/07/01 01:59:56;;;;;;;;;;;17.50;99.90;;;;;;5076652;28;20333;-67
2023/07/01 02:02:24;;;;;;;;;;;17.50;99.90;;;;;;5076469;28;20054;-67
2023/07/01 02:04:50;;;;;;;;;;;17.40;99.90;;;;;;5076537;28;20012;-67
2023/07/01 02:07:17;;;;;;;;;;;17.40;99.90;;;;;;5076530;28;20333;-67
2023/07/01 02:09:44;;;;;;;;;;;17.40;99.90;;;;;;5076235;28;20021;-68
2023/07/01 02:12:10;;;;;;;;;;;17.40;99.90;;;;;;5076422;28;20012;-68
2023/07/01 02:14:37;;;;;;;;;;;17.50;99.90;;;;;;5075962;28;20001;-67
2023/07/01 02:17:04;;;;;;;;;;;17.50;99.90;;;;;;5076059;28;20011;-67
2023/07/01 02:19:32;;;;;;;;;;;17.50;99.90;;;;;;5076214;28;20048;-67
2023/07/01 02:21:59;;;;;;;;;;;17.50;99.90;;;;;;5076172;28;20076;-68
2023/07/01 02:24:25;;;;;;;;;;;17.50;99.90;;;;;;5076073;28;19997;-68
2023/07/01 02:26:52;;;;;;;;;;;17.50;99.90;;;;;;5076253;28;20012;-67
2023/07/01 02:29:18;;;;;;;;;;;17.60;99.90;;;;;;5076234;28;20048;-67
2023/07/01 02:31:45;;;;;;;;;;;17.60;99.90;;;;;;5075903;28;20017;-66
2023/07/01 02:34:12;;;;;;;;;;;17.50;99.90;;;;;;5075978;28;20001;-68
2023/07/01 02:36:43;;;;;;;;;;;17.50;99.90;;;;;;5075813;28;20001;-67
2023/07/01 02:39:09;;;;;;;;;;;17.50;99.90;;;;;;5075766;28;20001;-67
2023/07/01 02:41:36;;;;;;;;;;;17.50;99.90;;;;;;5075786;28;20001;-66
2023/07/01 02:44:03;;;;;;;;;;;17.50;99.90;;;;;;5075706;28;20008;-67
2023/07/01 02:46:30;;;;;;;;;;;17.50;99.90;;;;;;5075741;28;20336;-67
2023/07/01 02:48:57;;;;;;;;;;;17.50;99.90;;;;;;5075825;28;20464;-66
2023/07/01 02:51:23;;;;;;;;;;;17.50;99.90;;;;;;5075393;28;20506;-67
2023/07/01 02:53:51;;;;;;;;;;;17.50;99.90;;;;;;5075318;28;20012;-67
2023/07/01 02:56:18;;;;;;;;;;;17.40;99.90;;;;;;5075395;28;20001;-67
2023/07/01 02:58:44;;;;;;;;;;;17.40;99.90;;;;;;5075113;28;20012;-67
2023/07/01 03:01:12;;;;;;;;;;;17.40;99.90;;;;;;5075310;28;20436;-67
2023/07/01 03:03:39;;;;;;;;;;;17.40;99.90;;;;;;5075144;28;20002;-67
2023/07/01 03:06:05;;;;;;;;;;;17.40;99.90;;;;;;5075444;28;20005;-67
2023/07/01 03:08:32;;;;;;;;;;;17.40;99.90;;;;;;5075093;28;20371;-67
2023/07/01 03:11:00;;;;;;;;;;;17.40;99.90;;;;;;5075021;28;20358;-67
2023/07/01 03:13:27;;;;;;;;;;;17.40;99.90;;;;;;5075294;28;20429;-67
2023/07/01 03:15:54;;;;;;;;;;;17.40;99.90;;;;;;5075344;28;20323;-67
2023/07/01 03:18:24;;;;;;;;;;;17.40;99.90;;;;;;5075260;28;20040;-67
2023/07/01 03:20:51;;;;;;;;;;;17.40;99.90;;;;;;5074853;28;20021;-67
2023/07/01 03:23:17;;;;;;;;;;;17.30;99.90;;;;;;5074839;28;20001;-67
2023/07/01 03:25:44;;;;;;;;;;;17.30;99.90;;;;;;5075238;28;20083;-67
2023/07/01 03:28:12;;;;;;;;;;;17.30;99.90;;;;;;5077701;28;20092;-67
2023/07/01 03:30:39;;;;;;;;;;;17.30;99.90;;;;;;5079179;28;20108;-67
2023/07/01 03:33:06;;;;;;;;;;;17.30;99.90;;;;;;5079103;28;20055;-67
2023/07/01 03:35:32;;;;;;;;;;;17.30;99.90;;;;;;5079104;28;20017;-67
2023/07/01 03:37:59;;;;;;;;;;;17.30;99.90;;;;;;5078972;28;20120;-67
2023/07/01 03:40:27;;;;;;;;;;;17.30;99.90;;;;;;5079160;28;20155;-68
2023/07/01 03:42:54;;;;;;;;;;;17.30;99.90;;;;;;5079032;28;20001;-67
2023/07/01 03:45:22;;;;;;;;;;;17.30;99.90;;;;;;5079177;28;20100;-67
2023/07/01 03:47:49;;;;;;;;;;;17.30;99.90;;;;;;5078967;28;20012;-67
2023/07/01 03:50:15;;;;;;;;;;;17.30;99.90;;;;;;5078886;28;20076;-67
2023/07/01 03:52:42;;;;;;;;;;;17.20;99.90;;;;;;5079099;28;20012;-67
2023/07/01 03:55:12;;;;;;;;;;;17.20;99.90;;;;;;5079017;28;20001;-67
2023/07/01 03:57:38;;;;;;;;;;;17.20;99.90;;;;;;5078735;28;20506;-67
2023/07/01 04:00:08;;;;;;;;;;;17.30;99.90;;;;;;5078807;28;20005;-67
2023/07/01 04:02:37;;;;;;;;;;;17.30;99.90;;;;;;5078617;28;20445;-67
2023/07/01 04:05:09;;;;;;;;;;;17.30;99.90;;;;;;5078613;28;20092;-67
2023/07/01 04:07:36;;;;;;;;;;;17.30;99.90;;;;;;5078712;28;19997;-67
2023/07/01 04:10:05;;;;;;;;;;;17.20;99.90;;;;;;5078541;28;20023;-67
2023/07/01 04:12:32;;;;;;;;;;;17.30;99.90;;;;;;5078327;28;20002;-67
2023/07/01 04:14:58;;;;;;;;;;;17.30;99.90;;;;;;5078555;28;20084;-67
2023/07/01 04:17:25;;;;;;;;;;;17.30;99.90;;;;;;5078475;28;20120;-67
2023/07/01 04:19:53;;;;;;;;;;;17.30;99.90;;;;;;5078395;28;20087;-67
2023/07/01 04:22:20;;;;;;;;;;;17.40;99.90;;;;;;5078021;28;20005;-67
2023/07/01 04:24:47;;;;;;;;;;;17.40;99.90;;;;;;5078245;28;20088;-67
2023/07/01 04:27:13;;;;;;;;;;;17.50;99.90;;;;;;5078395;28;20088;-67
2023/07/01 04:29:40;;;;;;;;;;;17.50;99.90;;;;;;5078688;28;20001;-67
2023/07/01 04:32:07;;;;;;;;;;;17.50;99.90;;;;;;5078218;28;20017;-67
2023/07/01 04:34:34;;;;;;;;;;;17.50;99.90;;;;;;5078384;28;20108;-67
2023/07/01 04:37:02;;;;;;;;;;;17.50;99.90;;;;;;5077820;28;20075;-67
2023/07/01 04:39:28;;;;;;;;;;;17.50;99.90;;;;;;5077660;28;20019;-67
2023/07/01 04:41:55;;;;;;;;;;;17.50;99.90;;;;;;5078153;28;20012;-67
2023/07/01 04:44:23;;;;;;;;;;;17.50;99.90;;;;;;5077937;28;20088;-67
2023/07/01 04:46:50;;;;;;;;;;;17.50;99.90;;;;;;5077988;28;20001;-67
2023/07/01 04:49:18;;;;;;;;;;;17.50;99.90;;;;;;5077908;28;20370;-67
2023/07/01 04:51:45;;;;;;;;;;;17.50;99.90;;;;;;5077480;28;20457;-67
2023/07/01 04:54:13;;;;;;;;;;;17.50;99.90;;;;;;5077889;28;20012;-67
2023/07/01 04:56:40;;;;;;;;;;;17.50;99.90;;;;;;5077751;28;20001;-67
2023/07/01 04:59:07;;;;;;;;;;;17.50;99.90;;;;;;5077605;28;20001;-67
2023/07/01 05:01:33;;;;;;;;;;;17.50;99.90;;;;;;5077401;28;20001;-67
2023/07/01 05:04:00;;;;;;;;;;;17.50;99.90;;;;;;5077173;28;20002;-67
2023/07/01 05:06:27;;;;;;;;;;;17.60;99.90;;;;;;5077235;28;20083;-67
2023/07/01 05:08:54;;;;;;;;;;;17.50;99.90;;;;;;5077443;28;20413;-68
2023/07/01 05:11:22;;;;;;;;;;;17.50;99.90;;;;;;5077619;28;20107;-67
2023/07/01 05:13:49;;;;;;;;;;;17.50;99.90;;;;;;5077471;28;20012;-67
2023/07/01 05:16:15;;;;;;;;;;;17.50;99.90;;;;;;5077433;28;20005;-67
2023/07/01 05:18:42;;;;;;;;;;;17.50;99.90;;;;;;5077039;28;20088;-67
2023/07/01 05:21:09;;;;;;;;;;;17.50;99.90;;;;;;5076849;28;20047;-67
2023/07/01 05:23:35;;;;;;;;;;;17.50;99.90;;;;;;5076867;28;20193;-67
2023/07/01 05:26:02;;;;;;;;;;;17.50;99.90;;;;;;5076949;28;20083;-67
2023/07/01 05:28:30;;;;;;;;;;;17.50;99.90;;;;;;5077272;28;20079;-67
2023/07/01 05:30:56;;;;;;;;;;;17.50;99.90;;;;;;5076939;28;20065;-67
2023/07/01 05:33:23;;;;;;;;;;;17.50;99.90;;;;;;5077006;28;20110;-67
2023/07/01 05:35:50;;;;;;;;;;;17.60;99.90;;;;;;5076629;28;20059;-67
2023/07/01 05:38:16;;;;;;;;;;;17.60;99.90;;;;;;5076621;28;20031;-67
2023/07/01 05:40:43;;;;;;;;;;;17.50;99.90;;;;;;5076423;28;20444;-67
2023/07/01 05:43:10;;;;;;;;;;;17.60;99.90;;;;;;5076517;28;20001;-67
2023/07/01 05:45:38;;;;;;;;;;;17.50;99.90;;;;;;5076384;28;20040;-67
2023/07/01 05:48:04;;;;;;;;;;;17.60;99.90;;;;;;5076221;28;20005;-67
2023/07/01 05:50:31;;;;;;;;;;;17.60;99.90;;;;;;5076037;28;20001;-67
2023/07/01 05:52:58;;;;;;;;;;;17.70;99.90;;;;;;5076158;28;20017;-69
2023/07/01 05:55:24;;;;;;;;;;;17.70;99.90;;;;;;5076655;28;20012;-69
2023/07/01 05:57:51;;;;;;;;;;;17.70;99.90;;;;;;5076572;28;20012;-67
2023/07/01 06:00:18;;;;;;;;;;;17.80;99.90;;;;;;5076386;28;20396;-67
2023/07/01 06:02:46;;;;;;;;;;;17.70;99.90;;;;;;5076026;28;20012;-67
2023/07/01 06:05:12;;;;;;;;;;;17.80;99.90;;;;;;5075899;28;20003;-67
2023/07/01 06:07:39;;;;;;;;;;;17.80;99.90;;;;;;5076167;28;20011;-67
2023/07/01 06:10:06;;;;;;;;;;;17.90;99.90;;;;;;5076185;28;20087;-67
2023/07/01 06:12:33;;;;;;;;;;;18.00;99.90;;;;;;5075820;28;20013;-68
2023/07/01 06:14:59;;;;;;;;;;;18.00;99.90;;;;;;5076128;28;20348;-67
2023/07/01 06:17:26;;;;;;;;;;;18.20;99.90;;;;;;5075507;28;20472;-67
2023/07/01 06:19:54;;;;;;;;;;;18.20;99.90;;;;;;5075589;28;20048;-67
2023/07/01 06:22:21;;;;;;;;;;;18.20;99.90;;;;;;5075933;28;20012;-69
2023/07/01 06:24:47;;;;;;;;;;;18.10;99.90;;;;;;5075516;28;20040;-67
2023/07/01 06:27:14;;;;;;;;;;;18.20;99.90;;;;;;5075537;28;20041;-66
2023/07/01 06:29:41;;;;;;;;;;;18.30;99.90;;;;;;5075471;28;20425;-69
2023/07/01 06:32:08;;;;;;;;;;;18.40;99.90;;;;;;5075799;28;20024;-68
2023/07/01 06:34:34;;;;;;;;;;;18.50;99.90;;;;;;5075665;28;20091;-68
2023/07/01 06:37:03;;;;;;;;;;;18.50;99.90;;;;;;5075389;28;20347;-68
2023/07/01 06:39:30;;;;;;;;;;;18.60;99.90;;;;;;5075485;28;20002;-68
2023/07/01 06:41:57;;;;;;;;;;;18.60;99.90;;;;;;5075737;28;20019;-68
2023/07/01 06:44:23;;;;;;;;;;;18.70;99.90;;;;;;5075525;28;20001;-68
2023/07/01 06:46:50;;;;;;;;;;;18.70;99.90;;;;;;5075177;28;20001;-68
2023/07/01 06:49:17;;;;;;;;;;;18.70;99.90;;;;;;5075419;28;20001;-68
2023/07/01 06:51:43;;;;;;;;;;;18.80;99.90;;;;;;5075230;28;20013;-68
2023/07/01 06:54:12;;;;;;;;;;;18.80;99.90;;;;;;5075296;28;20087;-69
2023/07/01 06:56:38;;;;;;;;;;;18.90;99.90;;;;;;5075142;28;20003;-67
2023/07/01 06:59:05;;;;;;;;;;;19.00;99.90;;;;;;5075405;28;20001;-68
2023/07/01 07:01:32;;;;;;;;;;;19.00;99.90;;;;;;5075521;28;20337;-68
2023/07/01 07:03:59;;;;;;;;;;;19.10;99.90;;;;;;5075299;28;20001;-68
2023/07/01 07:06:25;;;;;;;;;;;19.10;99.90;;;;;;5075591;28;20009;-68
2023/07/01 07:08:55;;;;;;;;;;;19.20;99.90;;;;;;5074993;28;20048;-68
2023/07/01 07:11:23;;;;;;;;;;;19.10;99.90;;;;;;5075373;28;20078;-68
2023/07/01 07:13:49;;;;;;;;;;;19.30;99.90;;;;;;5075302;28;20063;-68
2023/07/01 07:16:16;;;;;;;;;;;19.30;99.90;;;;;;5074950;28;20434;-67
2023/07/01 07:18:43;;;;;;;;;;;19.40;99.90;;;;;;5074797;28;20005;-68
2023/07/01 07:21:09;;;;;;;;;;;19.40;99.90;;;;;;5074782;28;20011;-69
2023/07/01 07:23:36;;;;;;;;;;;19.50;99.90;;;;;;5075127;28;20397;-68
2023/07/01 07:26:03;;;;;;;;;;;19.60;99.90;;;;;;5075040;28;20090;-68
2023/07/01 07:28:31;;;;;;;;;;;19.60;99.90;;;;;;5074621;28;20084;-68
2023/07/01 07:31:00;;;;;;;;;;;19.80;99.90;;;;;;5074853;28;20051;-68
2023/07/01 07:33:26;;;;;;;;;;;19.80;99.90;;;;;;5074774;28;20032;-68
2023/07/01 07:35:53;;;;;;;;;;;19.80;99.90;;;;;;5074683;28;20001;-68
2023/07/01 07:38:20;;;;;;;;;;;19.90;99.90;;;;;;5074537;28;20463;-68
2023/07/01 07:40:46;;;;;;;;;;;20.00;99.90;;;;;;5074621;28;20437;-68
2023/07/01 07:43:13;;;;;;;;;;;19.90;99.90;;;;;;5074405;28;20088;-67
2023/07/01 07:45:41;;;;;;;;;;;19.90;99.90;;;;;;5074734;28;20012;-67
2023/07/01 07:48:08;;;;;;;;;;;19.90;99.90;;;;;;5074785;28;20002;-67
2023/07/01 07:50:35;;;;;;;;;;;20.00;99.90;;;;;;5074933;28;20001;-67
2023/07/01 07:53:03;;;;;;;;;;;20.00;99.90;;;;;;5074844;28;20019;-68
2023/07/01 07:55:33;;;;;;;;;;;20.20;99.90;;;;;;5074824;28;20001;-67
2023/07/01 07:58:00;;;;;;;;;;;20.10;99.90;;;;;;5074776;28;20016;-67
2023/07/01 08:00:26;;;;;;;;;;;20.10;99.90;;;;;;5074666;28;20346;-67
2023/07/01 08:02:54;;;;;;;;;;;20.10;99.90;;;;;;5074597;28;20001;-68
2023/07/01 08:05:21;;;;;;;;;;;20.20;99.90;;;;;;5074685;28;20036;-69
2023/07/01 08:07:48;;;;;;;;;;;20.20;99.90;;;;;;5074929;28;20325;-68
2023/07/01 08:10:16;;;;;;;;;;;20.20;99.90;;;;;;5074880;28;20095;-69
2023/07/01 08:12:42;;;;;;;;;;;20.30;99.90;;;;;;5074772;28;20378;-68
2023/07/01 08:15:09;;;;;;;;;;;20.30;99.90;;;;;;5078766;28;20367;-68
2023/07/01 08:17:36;;;;;;;;;;;20.30;99.90;;;;;;5078425;28;20016;-68
2023/07/01 08:20:05;;;;;;;;;;;20.50;99.90;;;;;;5078217;28;20095;-68
2023/07/01 08:22:32;;;;;;;;;;;20.40;99.90;;;;;;5078469;28;20011;-70
2023/07/01 08:24:58;;;;;;;;;;;20.60;99.90;;;;;;5078173;28;20112;-67
2023/07/01 08:27:25;;;;;;;;;;;20.50;99.90;;;;;;5078289;28;20289;-68
2023/07/01 08:29:54;;;;;;;;;;;20.50;99.90;;;;;;5078188;28;20303;-68
2023/07/01 08:32:21;;;;;;;;;;;20.50;99.90;;;;;;5077713;28;20013;-68
2023/07/01 08:34:47;;;;;;;;;;;20.60;99.90;;;;;;5078097;28;20001;-68
2023/07/01 08:37:16;;;;;;;;;;;20.70;99.90;;;;;;5078143;28;20021;-68
2023/07/01 08:39:43;;;;;;;;;;;20.70;99.90;;;;;;5078049;28;20333;-68
2023/07/01 08:42:10;;;;;;;;;;;20.70;99.90;;;;;;5077965;28;19997;-68
2023/07/01 08:44:38;;;;;;;;;;;20.80;99.90;;;;;;5077943;28;20001;-69
2023/07/01 08:47:05;;;;;;;;;;;20.70;99.90;;;;;;5077512;28;20015;-68
2023/07/01 08:49:32;;;;;;;;;;;20.80;99.90;;;;;;5077712;28;20331;-68
2023/07/01 08:52:05;;;;;;;;;;;20.70;99.90;;;;;;5077675;28;20013;-68
2023/07/01 08:54:33;;;;;;;;;;;20.80;99.90;;;;;;5077420;28;20422;-68
2023/07/01 08:57:00;;;;;;;;;;;20.80;99.90;;;;;;5077625;28;20330;-68
2023/07/01 08:59:27;;;;;;;;;;;20.80;99.90;;;;;;5077315;28;20005;-68
2023/07/01 09:01:54;;;;;;;;;;;20.90;99.90;;;;;;5077610;28;20367;-68
2023/07/01 09:04:21;;;;;;;;;;;21.00;99.90;;;;;;5076991;28;20001;-68
2023/07/01 09:06:48;;;;;;;;;;;21.00;99.90;;;;;;5077423;28;20001;-68
2023/07/01 09:09:15;;;;;;;;;;;21.10;99.90;;;;;;5077260;28;20049;-68
2023/07/01 09:11:43;;;;;;;;;;;21.00;99.90;;;;;;5077281;28;20333;-68
2023/07/01 09:14:09;;;;;;;;;;;21.00;99.90;;;;;;5077285;28;20428;-68
2023/07/01 09:16:36;;;;;;;;;;;21.00;99.90;;;;;;5077107;28;20326;-68
2023/07/01 09:19:04;;;;;;;;;;;21.10;99.90;;;;;;5077176;28;20001;-68
2023/07/01 09:21:32;;;;;;;;;;;21.10;99.90;;;;;;5076975;28;20001;-68
2023/07/01 09:23:59;;;;;;;;;;;21.20;99.90;;;;;;5076331;28;20009;-68
2023/07/01 09:26:26;;;;;;;;;;;21.20;99.90;;;;;;5076111;28;20001;-68
2023/07/01 09:28:55;;;;;;;;;;;21.20;99.90;;;;;;5077089;28;20359;-68
2023/07/01 09:31:21;;;;;;;;;;;21.30;99.90;;;;;;5076530;28;20056;-68
2023/07/01 09:33:59;;;;;;;;;;;21.40;99.90;;;;;;5076415;28;20027;-68
2023/07/01 09:36:26;;;;;;;;;;;21.40;99.90;;;;;;5076535;28;20012;-69
2023/07/01 09:38:53;;;;;;;;;;;21.50;99.90;;;;;;5076743;28;20020;-68
2023/07/01 09:41:23;;;;;;;;;;;21.50;99.90;;;;;;5076309;28;20001;-68
2023/07/01 09:43:50;;;;;;;;;;;21.60;99.90;;;;;;5077118;28;20002;-67
2023/07/01 09:46:18;;;;;;;;;;;21.60;99.90;;;;;;5076297;28;20002;-68
2023/07/01 09:48:53;;;;;;;;;;;21.50;99.90;;;;;;5076167;28;20058;-68
2023/07/01 09:51:20;;;;;;;;;;;21.50;99.90;;;;;;5076427;28;20011;-67
2023/07/01 09:53:47;;;;;;;;;;;21.70;99.90;;;;;;5075900;28;20013;-67
2023/07/01 09:56:15;;;;;;;;;;;21.70;99.90;;;;;;5076064;28;20000;-68
2023/07/01 09:58:42;;;;;;;;;;;21.70;99.90;;;;;;5076457;28;20353;-68
2023/07/01 10:01:08;;;;;;;;;;;21.80;99.90;;;;;;5075996;28;20016;-68
2023/07/01 10:03:37;;;;;;;;;;;21.90;99.50;;;;;;5076073;28;20001;-68
2023/07/01 10:06:04;;;;;;;;;;;21.90;99.90;;;;;;5076088;28;20334;-68
2023/07/01 10:08:30;;;;;;;;;;;21.90;99.90;;;;;;5076273;28;20124;-69
2023/07/01 10:10:59;;;;;;;;;;;21.90;99.90;;;;;;5076100;28;20401;-68
2023/07/01 10:13:26;;;;;;;;;;;22.10;99.90;;;;;;5075578;28;20441;-68
2023/07/01 10:15:53;;;;;;;;;;;22.10;99.90;;;;;;5076330;28;20329;-69
2023/07/01 10:18:21;;;;;;;;;;;22.20;99.90;;;;;;5075963;28;20062;-68
2023/07/01 10:20:50;;;;;;;;;;;22.10;99.90;;;;;;5075987;28;20012;-68
2023/07/01 10:23:17;;;;;;;;;;;22.10;99.90;;;;;;5075804;28;20056;-69
2023/07/01 10:25:43;;;;;;;;;;;22.20;99.90;;;;;;5075519;28;20094;-67
2023/07/01 10:28:10;;;;;;;;;;;22.20;99.20;;;;;;5075779;28;20001;-68
2023/07/01 10:30:56;;;;;;;;;;;22.20;99.90;;;;;;5075978;28;20001;-68
2023/07/01 10:33:41;;;;;;;;;;;22.40;99.90;;;;;;5075913;28;20130;-67
2023/07/01 10:36:10;;;;;;;;;;;22.50;99.90;;;;;;5075619;28;20001;-69
2023/07/01 10:38:37;;;;;;;;;;;22.50;99.90;;;;;;5075605;28;20027;-68
2023/07/01 10:41:04;;;;;;;;;;;22.50;99.90;;;;;;5076030;28;20005;-69
2023/07/01 10:43:31;;;;;;;;;;;22.70;99.90;;;;;;5075594;28;20001;-66
2023/07/01 10:46:04;;;;;;;;;;;22.70;99.90;;;;;;5076013;28;20001;-69
2023/07/01 10:48:31;;;;;;;;;;;22.80;96.90;;;;;;5075604;28;20051;-69
2023/07/01 10:51:01;;;;;;;;;;;22.80;99.90;;;;;;5076545;28;20001;-67
2023/07/01 10:53:29;;;;;;;;;;;22.90;99.90;;;;;;5075853;28;20023;-66
2023/07/01 10:56:10;;;;;;;;;;;23.10;98.30;;;;;;5075895;28;20001;-69
2023/07/01 10:58:37;;;;;;;;;;;23.20;97.60;;;;;;5075534;28;20430;-68
2023/07/01 11:01:06;;;;;;;;;;;23.10;96.00;;;;;;5075618;28;20005;-68
2023/07/01 11:03:54;;;;;;;;;;;23.00;99.90;;;;;;5075296;28;20001;-67
2023/07/01 11:06:21;;;;;;;;;;;23.20;98.30;;;;;;5070294;28;20001;-67
2023/07/01 11:08:50;;;;;;;;;;;23.30;95.80;;;;;;5075587;28;20055;-68
2023/07/01 11:11:25;;;;;;;;;;;23.40;95.50;;;;;;5075609;28;20001;-67
2023/07/01 11:13:55;;;;;;;;;;;23.30;99.90;;;;;;5075421;28;20008;-67
2023/07/01 11:16:22;;;;;;;;;;;23.30;95.30;;;;;;5075281;28;19997;-67
2023/07/01 11:18:50;;;;;;;;;;;23.20;99.90;;;;;;5075147;28;20005;-67
2023/07/01 11:21:21;;;;;;;;;;;23.10;99.80;;;;;;5074944;28;20001;-67
2023/07/01 11:23:53;;;;;;;;;;;23.10;98.00;;;;;;5075819;28;20012;-67
2023/07/01 11:26:21;;;;;;;;;;;23.20;99.90;;;;;;5075249;28;20321;-68
2023/07/01 11:28:47;;;;;;;;;;;23.70;96.80;;;;;;5075073;28;20012;-68
2023/07/01 11:31:16;;;;;;;;;;;24.10;96.70;;;;;;5074764;28;20499;-67
2023/07/01 11:33:45;;;;;;;;;;;24.00;94.90;;;;;;5075110;28;20109;-66
2023/07/01 11:36:16;;;;;;;;;;;23.90;99.30;;;;;;5074961;28;20011;-67
2023/07/01 11:38:44;;;;;;;;;;;24.00;94.50;;;;;;5074775;28;20430;-68
2023/07/01 11:41:15;;;;;;;;;;;23.90;96.70;;;;;;5074867;28;20059;-68
2023/07/01 11:43:41;;;;;;;;;;;24.40;99.50;;;;;;5074933;28;20002;-67
2023/07/01 11:46:09;;;;;;;;;;;25.30;93.70;;;;;;5074750;28;20001;-67
2023/07/01 11:48:36;;;;;;;;;;;25.80;90.20;;;;;;5076212;28;20047;-67
2023/07/01 11:51:04;;;;;;;;;;;26.20;85.40;;;;;;5078666;28;20100;-67
2023/07/01 11:53:30;;;;;;;;;;;26.10;85.00;;;;;;5078412;28;20013;-67
2023/07/01 11:55:58;;;;;;;;;;;26.10;90.30;;;;;;5078425;28;20001;-68
2023/07/01 11:58:29;;;;;;;;;;;25.90;81.20;;;;;;5078362;28;20388;-68
2023/07/01 12:00:59;;;;;;;;;;;25.50;81.60;;;;;;5078119;28;20036;-68
2023/07/01 12:03:26;;;;;;;;;;;25.00;90.00;;;;;;5078473;28;20011;-68
2023/07/01 12:05:52;;;;;;;;;;;24.80;81.00;;;;;;5078300;28;20040;-67
2023/07/01 12:08:19;;;;;;;;;;;24.40;90.50;;;;;;5078432;28;20016;-69
2023/07/01 12:10:46;;;;;;;;;;;24.30;92.70;;;;;;5078066;28;20001;-67
2023/07/01 12:13:30;;;;;;;;;;;24.30;93.50;;;;;;5077875;28;20127;-68
2023/07/01 12:15:58;;;;;;;;;;;24.20;94.00;;;;;;5078263;28;20005;-69
2023/07/01 12:18:27;;;;;;;;;;;24.20;90.20;;;;;;5078743;28;20187;-68
2023/07/01 12:20:54;;;;;;;;;;;24.20;88.30;;;;;;5077983;28;20442;-68
2023/07/01 12:23:20;;;;;;;;;;;24.10;88.20;;;;;;5078303;28;20001;-68
2023/07/01 12:25:47;;;;;;;;;;;24.50;88.00;;;;;;5078227;28;20001;-68
2023/07/01 12:28:14;;;;;;;;;;;24.30;86.10;;;;;;5078204;28;20001;-68
2023/07/01 12:30:43;;;;;;;;;;;24.10;91.40;;;;;;5077934;28;20012;-68
2023/07/01 12:33:09;;;;;;;;;;;24.20;90.30;;;;;;5078014;28;20016;-67
2023/07/01 12:35:36;;;;;;;;;;;24.80;86.20;;;;;;5077685;28;20095;-68
2023/07/01 12:38:03;;;;;;;;;;;25.30;88.40;;;;;;5077546;28;20027;-68
2023/07/01 12:40:30;;;;;;;;;;;25.60;84.90;;;;;;5077481;28;20001;-68
2023/07/01 12:42:57;;;;;;;;;;;25.90;74.50;;;;;;5077625;28;20037;-67
2023/07/01 12:45:24;;;;;;;;;;;25.40;74.70;;;;;;5077687;28;20001;-68
2023/07/01 12:47:52;;;;;;;;;;;24.90;79.10;;;;;;5077346;28;20012;-67
2023/07/01 12:50:19;;;;;;;;;;;24.80;77.60;;;;;;5077754;28;20092;-68
2023/07/01 12:52:46;;;;;;;;;;;24.60;65.50;;;;;;5077593;28;20012;-68
2023/07/01 12:55:13;;;;;;;;;;;24.60;73.20;;;;;;5077610;28;20012;-68
2023/07/01 12:57:40;;;;;;;;;;;24.50;65.00;;;;;;5077708;28;20353;-68
2023/07/01 13:00:07;;;;;;;;;;;24.60;66.00;;;;;;5077371;28;20011;-68
2023/07/01 13:02:34;;;;;;;;;;;24.90;69.70;;;;;;5077498;28;20337;-68
2023/07/01 13:05:03;;;;;;;;;;;25.00;63.20;;;;;;5077366;28;20007;-68
2023/07/01 13:07:30;;;;;;;;;;;25.00;60.70;;;;;;5077305;28;20355;-68
2023/07/01 13:09:58;;;;;;;;;;;24.80;58.90;;;;;;5077032;28;20001;-68
2023/07/01 13:12:25;;;;;;;;;;;24.80;66.80;;;;;;5077220;28;20001;-69
2023/07/01 13:14:52;;;;;;;;;;;24.80;57.60;;;;;;5076738;28;20021;-68
2023/07/01 13:17:20;;;;;;;;;;;24.50;59.70;;;;;;5077212;28;20005;-68
2023/07/01 13:19:46;;;;;;;;;;;24.40;62.20;;;;;;5077129;28;20051;-68
2023/07/01 13:22:15;;;;;;;;;;;24.20;64.10;;;;;;5076981;28;20011;-68
2023/07/01 13:24:44;;;;;;;;;;;24.10;64.10;;;;;;5076968;28;20385;-68
2023/07/01 13:27:15;;;;;;;;;;;24.00;66.00;;;;;;5077006;28;20012;-68
2023/07/01 13:29:42;;;;;;;;;;;23.90;69.00;;;;;;5077000;28;20011;-68
2023/07/01 13:32:11;;;;;;;;;;;23.80;69.70;;;;;;5076832;28;20314;-68
2023/07/01 13:34:39;;;;;;;;;;;23.80;70.70;;;;;;5076737;28;20023;-68
2023/07/01 13:37:07;;;;;;;;;;;23.70;72.30;;;;;;5076413;28;20094;-68
2023/07/01 13:39:40;;;;;;;;;;;23.60;69.70;;;;;;5076517;28;20333;-68
2023/07/01 13:42:07;;;;;;;;;;;23.70;73.00;;;;;;5076687;28;19997;-68
2023/07/01 13:44:36;;;;;;;;;;;23.80;70.20;;;;;;5076734;28;20011;-68
2023/07/01 13:47:04;;;;;;;;;;;23.70;66.80;;;;;;5076483;28;20005;-68
2023/07/01 13:49:30;;;;;;;;;;;23.70;74.50;;;;;;5076537;28;20001;-68
2023/07/01 13:51:57;;;;;;;;;;;23.70;66.50;;;;;;5076682;28;20063;-68
2023/07/01 13:54:24;;;;;;;;;;;23.70;67.70;;;;;;5076589;28;20017;-68
2023/07/01 13:56:53;;;;;;;;;;;23.70;73.80;;;;;;5076540;28;20001;-68
2023/07/01 13:59:21;;;;;;;;;;;23.60;66.50;;;;;;5076656;28;20063;-68
2023/07/01 14:01:53;;;;;;;;;;;23.70;65.70;;;;;;5076475;28;20311;-68
2023/07/01 14:04:21;;;;;;;;;;;23.70;64.30;;;;;;5075982;28;19997;-68
2023/07/01 14:06:48;;;;;;;;;;;23.60;64.90;;;;;;5076322;28;20491;-68
2023/07/01 14:09:20;;;;;;;;;;;23.50;69.70;;;;;;5076476;28;20008;-68
2023/07/01 14:11:47;;;;;;;;;;;23.40;69.40;;;;;;5075734;28;19997;-68
2023/07/01 14:14:19;;;;;;;;;;;23.50;68.80;;;;;;5075844;28;20103;-67
2023/07/01 14:16:46;;;;;;;;;;;23.50;72.90;;;;;;5075998;28;20446;-66
2023/07/01 14:19:14;;;;;;;;;;;23.40;73.90;;;;;;5075763;28;20094;-68